createdAt,value
2018-02-13T00:01:53.626Z,9.87
2018-02-13T00:04:21.534Z,8.97
2018-02-13T00:06:50.272Z,6.93
2018-02-13T00:09:18.080Z,5.53
2018-02-13T00:11:45.944Z,5.67
2018-02-13T00:14:13.844Z,5.17
2018-02-13T00:16:41.642Z,5.10
2018-02-13T00:19:09.476Z,5.37
2018-02-13T00:21:37.624Z,5.67
2018-02-13T00:24:06.494Z,6.30
2018-02-13T00:26:34.628Z,5.13
2018-02-13T00:29:02.639Z,7.73
2018-02-13T00:31:30.811Z,8.07
2018-02-13T00:33:58.900Z,7.10
2018-02-13T00:36:27.056Z,5.67
2018-02-13T00:38:55.092Z,4.90
2018-02-13T00:41:23.124Z,4.30
2018-02-13T00:43:52.184Z,4.80
2018-02-13T00:46:20.165Z,6.20
2018-02-13T00:48:48.029Z,5.70
2018-02-13T00:51:15.999Z,5.67
2018-02-13T00:53:43.955Z,6.70
2018-02-13T00:56:11.835Z,6.00
2018-02-13T00:58:41.941Z,4.87
2018-02-13T01:01:09.728Z,4.50
2018-02-13T01:03:37.616Z,10.00
2018-02-13T01:06:06.248Z,7.90
2018-02-13T01:08:34.128Z,6.63
2018-02-13T01:11:01.941Z,6.60
2018-02-13T01:13:30.546Z,7.07
2018-02-13T01:15:58.328Z,6.07
2018-02-13T01:18:26.192Z,6.17
2018-02-13T01:20:54.023Z,5.67
2018-02-13T01:23:22.641Z,5.67
2018-02-13T01:25:50.480Z,4.97
2018-02-13T01:28:18.425Z,5.10
2018-02-13T01:30:47.300Z,4.97
2018-02-13T01:33:15.168Z,4.83
2018-02-13T01:35:43.109Z,4.30
2018-02-13T01:38:11.025Z,6.50
2018-02-13T01:40:39.606Z,5.90
2018-02-13T01:43:08.324Z,6.40
2018-02-13T01:45:36.102Z,10.37
2018-02-13T01:48:03.889Z,9.10
2018-02-13T01:50:31.788Z,8.37
2018-02-13T01:53:00.349Z,7.70
2018-02-13T01:55:28.438Z,6.93
2018-02-13T01:57:56.572Z,5.83
2018-02-13T02:00:24.427Z,5.43
2018-02-13T02:02:52.354Z,6.60
2018-02-13T02:05:21.032Z,7.63
2018-02-13T02:07:49.684Z,8.97
2018-02-13T02:10:17.552Z,7.33
2018-02-13T02:12:45.383Z,6.23
2018-02-13T02:15:13.161Z,5.70
2018-02-13T02:17:40.993Z,4.90
2018-02-13T02:20:08.984Z,6.27
2018-02-13T02:22:36.864Z,5.27
2018-02-13T02:25:04.709Z,5.40
2018-02-13T02:27:33.432Z,5.60
2018-02-13T02:30:01.411Z,5.73
2018-02-13T02:32:29.221Z,5.43
2018-02-13T02:34:57.887Z,5.70
2018-02-13T02:37:25.734Z,6.33
2018-02-13T02:39:53.596Z,7.83
2018-02-13T02:42:21.577Z,8.13
2018-02-13T02:44:49.379Z,7.50
2018-02-13T02:47:17.256Z,6.57
2018-02-13T02:49:45.109Z,7.00
2018-02-13T02:52:13.729Z,6.57
2018-02-13T02:54:41.596Z,5.50
2018-02-13T02:57:09.597Z,4.50
2018-02-13T02:59:37.818Z,3.97
2018-02-13T03:02:05.739Z,4.23
2018-02-13T03:04:33.710Z,5.77
2018-02-13T03:07:01.617Z,6.67
2018-02-13T03:09:29.497Z,6.03
2018-02-13T03:11:57.512Z,5.27
2018-02-13T03:14:25.483Z,5.93
2018-02-13T03:16:53.657Z,5.93
2018-02-13T03:19:21.901Z,6.03
2018-02-13T03:21:50.108Z,5.10
2018-02-13T03:24:18.749Z,5.10
2018-02-13T03:26:47.644Z,4.73
2018-02-13T03:29:15.430Z,5.30
2018-02-13T03:31:43.315Z,4.93
2018-02-13T03:34:11.271Z,5.30
2018-02-13T03:36:39.130Z,4.70
2018-02-13T03:39:06.928Z,4.90
2018-02-13T03:41:34.776Z,4.90
2018-02-13T03:44:02.624Z,4.90
2018-02-13T03:46:30.504Z,4.47
2018-02-13T03:48:59.098Z,4.97
2018-02-13T03:51:26.976Z,4.70
2018-02-13T03:53:54.884Z,3.50
2018-02-13T03:56:22.730Z,2.93
2018-02-13T03:58:51.515Z,2.80
2018-02-13T04:01:20.076Z,3.57
2018-02-13T04:03:47.994Z,2.80
2018-02-13T04:06:15.792Z,3.93
2018-02-13T04:08:43.605Z,5.00
2018-02-13T04:11:12.207Z,4.93
2018-02-13T04:13:40.057Z,5.57
2018-02-13T04:16:08.625Z,6.50
2018-02-13T04:18:37.345Z,7.50
2018-02-13T04:21:05.119Z,6.33
2018-02-13T04:23:33.034Z,5.40
2018-02-13T04:26:00.876Z,6.73
2018-02-13T04:28:28.653Z,5.43
2018-02-13T04:30:56.658Z,5.03
2018-02-13T04:33:24.592Z,5.53
2018-02-13T04:35:52.401Z,4.80
2018-02-13T04:38:20.276Z,4.20
2018-02-13T04:40:48.124Z,4.17
2018-02-13T04:43:16.770Z,4.67
2018-02-13T04:45:44.557Z,4.30
2018-02-13T04:48:13.037Z,5.10
2018-02-13T04:50:40.904Z,4.60
2018-02-13T04:53:08.754Z,4.40
2018-02-13T04:55:36.728Z,4.40
2018-02-13T04:58:04.797Z,4.73
2018-02-13T05:00:32.685Z,4.63
2018-02-13T05:03:01.450Z,4.70
2018-02-13T05:05:29.340Z,4.50
2018-02-13T05:07:57.892Z,5.73
2018-02-13T05:10:25.827Z,7.80
2018-02-13T05:12:53.620Z,8.63
2018-02-13T05:15:21.510Z,14.97
2018-02-13T05:17:49.471Z,5.60
2018-02-13T05:20:17.264Z,5.63
2018-02-13T05:22:46.007Z,4.83
2018-02-13T05:25:13.932Z,4.73
2018-02-13T05:27:42.607Z,5.80
2018-02-13T05:30:11.220Z,5.90
2018-02-13T05:32:39.169Z,6.07
2018-02-13T05:35:07.725Z,5.63
2018-02-13T05:37:35.564Z,4.90
2018-02-13T05:40:03.470Z,5.17
2018-02-13T05:42:32.096Z,5.10
2018-02-13T05:45:00.000Z,5.67
2018-02-13T05:47:27.865Z,6.30
2018-02-13T05:49:55.836Z,5.37
2018-02-13T05:52:23.705Z,5.10
2018-02-13T05:54:51.680Z,5.47
2018-02-13T05:57:19.468Z,5.03
2018-02-13T05:59:48.089Z,5.43
2018-02-13T06:02:16.034Z,5.23
2018-02-13T06:04:43.905Z,6.23
2018-02-13T06:07:11.927Z,5.90
2018-02-13T06:09:40.056Z,6.23
2018-02-13T06:12:08.077Z,6.33
2018-02-13T06:14:36.038Z,6.67
2018-02-13T06:17:04.008Z,7.37
2018-02-13T06:19:31.885Z,8.33
2018-02-13T06:21:59.905Z,6.47
2018-02-13T06:24:28.182Z,7.27
2018-02-13T06:26:56.132Z,6.40
2018-02-13T06:29:24.368Z,7.00
2018-02-13T06:31:52.644Z,8.30
2018-02-13T06:34:20.480Z,6.87
2018-02-13T06:36:48.257Z,7.43
2018-02-13T06:39:16.208Z,7.07
2018-02-13T06:41:44.023Z,7.63
2018-02-13T06:44:11.824Z,8.33
2018-02-13T06:46:39.783Z,8.20
2018-02-13T06:49:07.577Z,7.60
2018-02-13T06:51:35.428Z,9.87
2018-02-13T06:54:03.298Z,10.07
2018-02-13T06:56:31.110Z,8.93
2018-02-13T06:58:58.968Z,8.10
2018-02-13T07:01:26.901Z,8.90
2018-02-13T07:03:54.796Z,7.63
2018-02-13T07:06:22.573Z,9.40
2018-02-13T07:08:50.490Z,8.50
2018-02-13T07:11:18.372Z,8.13
2018-02-13T07:13:46.197Z,9.10
2018-02-13T07:16:14.857Z,8.80
2018-02-13T07:18:42.764Z,9.33
2018-02-13T07:21:11.396Z,11.33
2018-02-13T07:23:39.556Z,10.93
2018-02-13T07:26:07.352Z,11.60
2018-02-13T07:28:35.174Z,12.87
2018-02-13T07:31:03.797Z,11.07
2018-02-13T07:33:31.669Z,11.13
2018-02-13T07:35:59.544Z,11.10
2018-02-13T07:38:27.552Z,10.47
2018-02-13T07:40:55.472Z,11.03
2018-02-13T07:43:23.516Z,11.33
2018-02-13T07:45:51.625Z,12.60
2018-02-13T07:48:19.491Z,12.60
2018-02-13T07:50:47.389Z,12.07
2018-02-13T07:53:16.076Z,11.50
2018-02-13T07:55:43.948Z,11.80
2018-02-13T07:58:11.808Z,12.27
2018-02-13T08:00:39.755Z,11.77
2018-02-13T08:03:07.653Z,11.20
2018-02-13T08:05:35.442Z,11.30
2018-02-13T08:08:03.356Z,11.80
2018-02-13T08:10:31.242Z,12.03
2018-02-13T08:12:59.789Z,11.10
2018-02-13T08:15:27.727Z,10.10
2018-02-13T08:17:55.831Z,10.17
2018-02-13T08:20:23.698Z,11.40
2018-02-13T08:22:51.663Z,13.00
2018-02-13T08:25:19.604Z,13.37
2018-02-13T08:27:47.706Z,13.50
2018-02-13T08:30:15.744Z,12.97
2018-02-13T08:32:43.646Z,11.90
2018-02-13T08:35:11.672Z,12.13
2018-02-13T08:37:39.685Z,11.10
2018-02-13T08:40:07.759Z,11.00
2018-02-13T08:42:35.777Z,12.00
2018-02-13T08:45:03.740Z,11.67
2018-02-13T08:47:31.616Z,10.47
2018-02-13T08:49:59.737Z,10.73
2018-02-13T08:52:27.668Z,9.83
2018-02-13T08:54:56.214Z,9.13
2018-02-13T08:57:24.972Z,9.43
2018-02-13T08:59:53.231Z,9.57
2018-02-13T09:02:21.283Z,8.73
2018-02-13T09:04:49.195Z,9.43
2018-02-13T09:07:17.139Z,9.43
2018-02-13T09:09:44.968Z,9.57
2018-02-13T09:12:12.806Z,8.33
2018-02-13T09:14:40.838Z,8.80
2018-02-13T09:17:08.705Z,8.47
2018-02-13T09:19:36.620Z,8.80
2018-02-13T09:22:05.294Z,8.70
2018-02-13T09:24:33.992Z,7.60
2018-02-13T09:27:02.668Z,7.90
2018-02-13T09:29:30.612Z,7.97
2018-02-13T09:31:58.528Z,8.43
2018-02-13T09:34:27.184Z,8.27
2018-02-13T09:36:55.087Z,8.90
2018-02-13T09:39:23.161Z,9.13
2018-02-13T09:41:51.046Z,9.37
2018-02-13T09:44:18.955Z,8.37
2018-02-13T09:46:46.948Z,9.33
2018-02-13T09:49:15.620Z,9.33
2018-02-13T09:51:43.601Z,8.63
2018-02-13T09:54:12.271Z,9.13
2018-02-13T09:56:40.159Z,9.53
2018-02-13T09:59:08.887Z,10.63
2018-02-13T10:01:36.779Z,10.93
2018-02-13T10:04:04.581Z,11.93
2018-02-13T10:06:33.276Z,10.83
2018-02-13T10:09:01.173Z,9.53
2018-02-13T10:11:29.004Z,9.23
2018-02-13T10:13:57.858Z,8.80
2018-02-13T10:16:26.008Z,7.23
2018-02-13T10:18:53.892Z,6.83
2018-02-13T10:21:21.926Z,4.50
2018-02-13T10:23:49.736Z,4.80
2018-02-13T10:26:17.609Z,5.10
2018-02-13T10:28:45.476Z,5.40
2018-02-13T10:31:13.412Z,5.90
2018-02-13T10:33:41.290Z,6.47
2018-02-13T10:36:09.146Z,8.67
2018-02-13T10:38:37.075Z,8.03
2018-02-13T10:41:05.634Z,6.70
2018-02-13T10:43:33.609Z,7.07
2018-02-13T10:46:02.169Z,7.23
2018-02-13T10:48:29.993Z,6.47
2018-02-13T10:50:57.900Z,7.53
2018-02-13T10:53:25.792Z,7.47
2018-02-13T10:55:53.685Z,6.00
2018-02-13T10:58:21.630Z,6.33
2018-02-13T11:00:55.027Z,5.67
2018-02-13T11:03:23.701Z,4.70
2018-02-13T11:05:51.629Z,4.43
2018-02-13T11:08:19.412Z,3.83
2018-02-13T11:10:47.332Z,4.37
2018-02-13T11:13:16.012Z,4.67
2018-02-13T11:15:44.614Z,4.17
2018-02-13T11:18:12.603Z,4.60
2018-02-13T11:20:40.504Z,5.27
2018-02-13T11:23:08.416Z,4.37
2018-02-13T11:25:36.386Z,5.00
2018-02-13T11:28:04.214Z,4.97
2018-02-13T11:30:32.105Z,5.13
2018-02-13T11:33:00.735Z,5.23
2018-02-13T11:35:28.585Z,5.00
2018-02-13T11:37:56.852Z,4.70
2018-02-13T11:40:24.772Z,4.63
2018-02-13T11:42:52.641Z,4.43
2018-02-13T11:45:20.544Z,4.67
2018-02-13T11:47:48.468Z,4.30
2018-02-13T11:50:16.352Z,4.10
2018-02-13T11:52:44.191Z,4.10
2018-02-13T11:55:12.149Z,3.73
2018-02-13T11:57:40.158Z,3.97
2018-02-13T12:00:08.865Z,3.90
2018-02-13T12:02:36.797Z,3.37
2018-02-13T12:05:04.666Z,4.00
2018-02-13T12:07:32.505Z,3.40
2018-02-13T12:10:00.381Z,2.37
2018-02-13T12:12:28.177Z,1.70
2018-02-13T12:14:56.829Z,1.80
2018-02-13T12:17:24.692Z,2.20
2018-02-13T12:19:52.586Z,2.00
2018-02-13T12:22:20.412Z,2.03
2018-02-13T12:24:48.280Z,2.50
2018-02-13T12:27:16.084Z,2.40
2018-02-13T12:29:43.912Z,2.60
2018-02-13T12:32:11.876Z,2.70
2018-02-13T12:34:39.714Z,2.63
2018-02-13T12:37:08.277Z,2.40
2018-02-13T12:39:36.235Z,2.30
2018-02-13T12:42:04.179Z,2.60
2018-02-13T12:44:31.989Z,2.57
2018-02-13T12:47:00.720Z,2.40
2018-02-13T12:49:28.589Z,2.47
2018-02-13T12:51:56.452Z,2.23
2018-02-13T12:54:24.483Z,2.40
2018-02-13T12:56:53.176Z,2.70
2018-02-13T12:59:21.743Z,2.50
2018-02-13T13:01:49.694Z,2.50
2018-02-13T13:04:17.545Z,2.73
2018-02-13T13:06:45.405Z,3.03
2018-02-13T13:09:13.264Z,2.57
2018-02-13T13:11:41.148Z,2.37
2018-02-13T13:14:09.053Z,2.20
2018-02-13T13:16:37.769Z,2.17
2018-02-13T13:19:05.637Z,2.23
2018-02-13T13:21:33.450Z,2.30
2018-02-13T13:24:01.388Z,2.57
2018-02-13T13:26:29.460Z,2.57
2018-02-13T13:28:57.303Z,2.40
2018-02-13T13:31:25.244Z,2.40
2018-02-13T13:33:53.902Z,2.40
2018-02-13T13:36:21.693Z,2.30
2018-02-13T13:38:49.580Z,2.20
2018-02-13T13:41:17.365Z,2.07
2018-02-13T13:43:45.228Z,2.20
2018-02-13T13:46:14.123Z,2.30
2018-02-13T13:48:41.992Z,2.43
2018-02-13T13:51:09.805Z,2.27
2018-02-13T13:53:37.726Z,2.57
2018-02-13T13:56:05.551Z,2.47
2018-02-13T13:58:34.187Z,2.37
2018-02-13T14:01:02.044Z,2.27
2018-02-13T14:03:29.877Z,2.47
2018-02-13T14:05:58.487Z,2.30
2018-02-13T14:08:26.398Z,2.20
2018-02-13T14:10:54.296Z,2.30
2018-02-13T14:13:22.998Z,2.30
2018-02-13T14:15:51.234Z,2.20
2018-02-13T14:18:19.136Z,2.40
2018-02-13T14:20:47.664Z,2.30
2018-02-13T14:23:15.508Z,3.10
2018-02-13T14:25:43.367Z,2.50
2018-02-13T14:28:11.304Z,2.77
2018-02-13T14:30:39.953Z,2.90
2018-02-13T14:33:07.785Z,2.83
2018-02-13T14:35:35.637Z,3.00
2018-02-13T14:38:03.570Z,2.83
2018-02-13T14:40:31.376Z,2.70
2018-02-13T14:42:59.167Z,3.00
2018-02-13T14:45:27.110Z,3.10
2018-02-13T14:47:54.996Z,3.73
2018-02-13T14:50:22.906Z,3.03
2018-02-13T14:52:50.766Z,3.40
2018-02-13T14:55:18.641Z,3.10
2018-02-13T14:57:46.460Z,3.00
2018-02-13T15:00:14.839Z,3.17
2018-02-13T15:02:42.978Z,2.80
2018-02-13T15:05:12.458Z,3.10
2018-02-13T15:07:40.584Z,4.13
2018-02-13T15:10:08.532Z,3.80
2018-02-13T15:12:37.287Z,3.27
2018-02-13T15:15:08.987Z,3.53
2018-02-13T15:20:40.467Z,3.13
2018-02-13T15:23:08.314Z,3.00
2018-02-13T15:25:36.927Z,3.57
2018-02-13T15:28:04.874Z,3.30
2018-02-13T15:30:33.554Z,3.30
2018-02-13T15:33:02.173Z,3.70
2018-02-13T15:35:30.041Z,3.77
2018-02-13T15:37:58.004Z,3.50
2018-02-13T15:40:25.862Z,3.30
2018-02-13T15:42:53.775Z,3.77
2018-02-13T15:45:21.593Z,3.67
2018-02-13T15:47:49.506Z,3.27
2018-02-13T15:50:17.363Z,3.63
2018-02-13T15:52:45.133Z,3.80
2018-02-13T15:55:13.932Z,4.10
2018-02-13T15:57:42.305Z,3.90
2018-02-13T16:00:10.274Z,4.07
2018-02-13T16:02:39.232Z,4.00
2018-02-13T16:05:07.134Z,4.13
2018-02-13T16:07:35.215Z,4.20
2018-02-13T16:10:03.100Z,4.40
2018-02-13T16:12:31.805Z,4.20
2018-02-13T16:15:00.424Z,3.90
2018-02-13T16:17:28.317Z,3.97
2018-02-13T16:19:56.195Z,4.50
2018-02-13T16:22:24.025Z,5.30
2018-02-13T16:24:51.880Z,5.47
2018-02-13T16:27:19.736Z,4.87
2018-02-13T16:29:47.653Z,4.93
2018-02-13T16:32:15.495Z,22.33
2018-02-13T16:34:43.418Z,69.63
2018-02-13T16:37:12.038Z,30.67
2018-02-13T16:39:39.885Z,45.40
2018-02-13T16:42:07.906Z,6.18
2018-02-13T16:44:35.804Z,4.80
2018-02-13T16:47:04.603Z,4.97
2018-02-13T16:49:34.596Z,4.93
2018-02-13T16:52:03.276Z,5.40
2018-02-13T16:54:31.144Z,5.13
2018-02-13T16:56:59.073Z,5.67
2018-02-13T16:59:27.086Z,6.70
2018-02-13T17:01:55.757Z,7.67
2018-02-13T17:04:23.699Z,6.87
2018-02-13T17:06:51.535Z,12.43
2018-02-13T17:09:19.377Z,7.30
2018-02-13T17:11:48.057Z,5.40
2018-02-13T17:14:15.892Z,4.43
2018-02-13T17:16:43.682Z,5.00
2018-02-13T17:19:11.665Z,5.30
2018-02-13T17:21:40.257Z,5.07
2018-02-13T17:24:08.942Z,5.57
2018-02-13T17:26:37.741Z,56.00
2018-02-13T17:29:06.380Z,54.80
2018-02-13T17:31:34.276Z,5.47
2018-02-13T17:34:02.886Z,4.80
2018-02-13T17:36:30.664Z,5.30
2018-02-13T17:38:58.576Z,5.07
2018-02-13T17:41:26.541Z,5.77
2018-02-13T17:43:54.411Z,5.93
2018-02-13T17:46:22.309Z,5.63
2018-02-13T17:48:50.997Z,6.83
2018-02-13T17:51:18.928Z,5.73
2018-02-13T17:53:46.789Z,8.07
2018-02-13T17:56:14.700Z,12.67
2018-02-13T17:58:43.360Z,11.13
2018-02-13T18:01:11.210Z,8.60
2018-02-13T18:03:39.137Z,6.83
2018-02-13T18:06:06.913Z,5.80
2018-02-13T18:08:34.883Z,6.47
2018-02-13T18:11:02.792Z,7.97
2018-02-13T18:13:30.661Z,6.93
2018-02-13T18:15:58.549Z,6.47
2018-02-13T18:18:27.239Z,6.63
2018-02-13T18:20:55.786Z,5.80
2018-02-13T18:23:23.691Z,5.67
2018-02-13T18:25:52.397Z,5.10
2018-02-13T18:28:20.185Z,5.40
2018-02-13T18:30:48.889Z,5.17
2018-02-13T18:33:16.744Z,5.43
2018-02-13T18:35:44.645Z,4.57
2018-02-13T18:38:12.493Z,5.00
2018-02-13T18:40:40.636Z,4.47
2018-02-13T18:43:08.532Z,5.10
2018-02-13T18:45:36.354Z,4.50
2018-02-13T18:48:04.253Z,4.40
2018-02-13T18:50:32.161Z,4.60
2018-02-13T18:55:28.595Z,5.27
2018-02-13T18:57:56.447Z,6.83
2018-02-13T19:00:24.219Z,5.83
2018-02-13T19:02:52.961Z,6.77
2018-02-13T19:05:20.811Z,5.97
2018-02-13T19:07:48.637Z,5.60
2018-02-13T19:10:16.576Z,5.90
2018-02-13T19:12:44.410Z,5.60
2018-02-13T19:15:13.061Z,5.43
2018-02-13T19:17:40.928Z,5.20
2018-02-13T19:20:08.776Z,5.50
2018-02-13T19:22:36.992Z,5.57
2018-02-13T19:25:05.628Z,7.73
2018-02-13T19:27:33.451Z,48.60
2018-02-13T19:30:02.054Z,42.87
2018-02-13T19:32:29.919Z,14.30
2018-02-13T19:34:57.801Z,11.10
2018-02-13T19:37:25.636Z,8.67
2018-02-13T19:39:54.330Z,7.27
2018-02-13T19:42:22.207Z,7.40
2018-02-13T19:44:49.981Z,6.73
2018-02-13T19:47:17.889Z,7.77
2018-02-13T19:49:45.750Z,7.97
2018-02-13T19:52:13.596Z,8.23
2018-02-13T19:54:41.568Z,10.03
2018-02-13T19:57:09.435Z,10.23
2018-02-13T19:59:37.298Z,9.47
2018-02-13T20:02:05.153Z,11.30
2018-02-13T20:04:32.977Z,8.47
2018-02-13T20:07:01.625Z,8.27
2018-02-13T20:09:29.620Z,9.10
2018-02-13T20:11:57.425Z,6.80
2018-02-13T20:14:25.277Z,7.30
2018-02-13T20:16:53.198Z,8.80
2018-02-13T20:19:21.061Z,8.03
2018-02-13T20:21:48.965Z,8.07
2018-02-13T20:24:17.605Z,7.97
2018-02-13T20:26:45.477Z,9.10
2018-02-13T20:29:13.316Z,8.17
2018-02-13T20:31:41.272Z,6.50
2018-02-13T20:34:09.142Z,8.43
2018-02-13T20:36:37.733Z,7.97
2018-02-13T20:39:05.644Z,8.97
2018-02-13T20:41:33.480Z,10.03
2018-02-13T20:44:01.398Z,9.97
2018-02-13T20:46:30.119Z,9.27
2018-02-13T20:48:57.917Z,16.10
2018-02-13T20:51:25.746Z,8.87
2018-02-13T20:53:53.681Z,7.60
2018-02-13T20:56:21.470Z,6.40
2018-02-13T20:58:49.343Z,10.07
2018-02-13T21:01:17.246Z,8.73
2018-02-13T21:03:45.102Z,8.33
2018-02-13T21:06:12.998Z,7.53
2018-02-13T21:08:40.846Z,8.07
2018-02-13T21:11:08.706Z,8.20
2018-02-13T21:13:36.581Z,6.80
2018-02-13T21:16:04.468Z,6.50
2018-02-13T21:18:32.345Z,6.60
2018-02-13T21:21:00.237Z,5.30
2018-02-13T21:23:28.928Z,5.80
2018-02-13T21:25:57.573Z,5.43
2018-02-13T21:28:25.431Z,5.70
2018-02-13T21:30:53.404Z,5.93
2018-02-13T21:33:21.253Z,5.63
2018-02-13T21:35:49.095Z,5.23
2018-02-13T21:38:17.080Z,4.97
2018-02-13T21:40:44.908Z,4.90
2018-02-13T21:43:13.524Z,5.37
2018-02-13T21:45:41.497Z,5.13
2018-02-13T21:48:09.287Z,5.80
2018-02-13T21:50:37.174Z,4.83
2018-02-13T21:53:05.022Z,4.33
2018-02-13T21:55:32.830Z,5.40
2018-02-13T21:58:01.366Z,5.37
2018-02-13T22:00:29.249Z,5.20
2018-02-13T22:02:57.131Z,4.43
2018-02-13T22:05:24.966Z,5.17
2018-02-13T22:07:53.063Z,5.40
2018-02-13T22:10:21.188Z,4.77
2018-02-13T22:12:49.084Z,5.03
2018-02-13T22:15:16.980Z,5.33
2018-02-13T22:17:45.820Z,5.00
2018-02-13T22:20:13.697Z,5.50
2018-02-13T22:22:41.641Z,6.43
2018-02-13T22:25:09.480Z,6.60
2018-02-13T22:27:38.105Z,6.87
2018-02-13T22:30:05.940Z,8.03
2018-02-13T22:32:33.975Z,8.03
2018-02-13T22:35:01.955Z,6.10
2018-02-13T22:37:29.971Z,5.20
2018-02-13T22:39:58.285Z,4.87
2018-02-13T22:42:26.544Z,4.37
2018-02-13T22:44:54.528Z,4.53
2018-02-13T22:47:22.468Z,4.70
2018-02-13T22:49:50.568Z,4.57
2018-02-13T22:52:18.540Z,4.80
2018-02-13T22:54:46.396Z,4.97
2018-02-13T22:57:14.274Z,4.83
2018-02-13T22:59:43.021Z,4.57
2018-02-13T23:02:10.832Z,4.00
2018-02-13T23:04:38.636Z,4.17
2018-02-13T23:07:07.252Z,4.80
2018-02-13T23:09:35.054Z,4.73
2018-02-13T23:12:02.840Z,4.97
2018-02-13T23:14:31.480Z,4.20
2018-02-13T23:17:00.033Z,4.93
2018-02-13T23:19:27.849Z,4.27
2018-02-13T23:21:55.808Z,4.70
2018-02-13T23:24:23.677Z,4.73
2018-02-13T23:26:51.518Z,4.77
2018-02-13T23:29:19.383Z,4.60
2018-02-13T23:31:47.227Z,5.00
2018-02-13T23:34:15.053Z,4.50
2018-02-13T23:36:42.885Z,4.57
2018-02-13T23:39:10.778Z,4.50
2018-02-13T23:41:38.657Z,5.03
2018-02-13T23:44:06.488Z,4.13
2018-02-13T23:46:34.325Z,4.57
2018-02-13T23:49:02.108Z,4.57
2018-02-13T23:51:30.141Z,4.57
2018-02-13T23:53:58.686Z,4.50
2018-02-13T23:56:26.458Z,5.37
2018-02-13T23:58:54.341Z,5.47
